createdAt,value
2022-09-15T00:02:16.174Z,17.80
2022-09-15T00:05:37.929Z,17.80
2022-09-15T00:08:59.735Z,17.80
2022-09-15T00:12:23.111Z,17.70
2022-09-15T00:15:47.733Z,17.70
2022-09-15T00:19:09.529Z,17.70
2022-09-15T00:22:31.250Z,17.70
2022-09-15T00:25:54.003Z,17.70
2022-09-15T00:29:17.098Z,17.70
2022-09-15T00:32:38.801Z,17.70
2022-09-15T00:36:02.135Z,17.70
2022-09-15T00:39:23.791Z,17.70
2022-09-15T00:42:45.415Z,17.70
2022-09-15T00:46:08.882Z,17.70
2022-09-15T00:49:32.285Z,17.60
2022-09-15T00:52:57.583Z,17.70
2022-09-15T00:56:19.573Z,17.70
2022-09-15T00:59:41.645Z,17.70
2022-09-15T01:03:04.711Z,17.70
2022-09-15T01:06:33.678Z,17.70
2022-09-15T01:09:57.636Z,17.70
2022-09-15T01:13:19.370Z,17.80
2022-09-15T01:16:46.209Z,17.80
2022-09-15T01:20:19.832Z,17.80
2022-09-15T01:23:59.381Z,17.70
2022-09-15T01:27:42.014Z,17.70
2022-09-15T01:31:08.062Z,17.70
2022-09-15T01:34:32.639Z,17.60
2022-09-15T01:37:57.747Z,17.60
2022-09-15T01:41:24.077Z,17.50
2022-09-15T01:44:48.279Z,17.50
2022-09-15T01:48:12.009Z,17.50
2022-09-15T01:51:34.014Z,17.50
2022-09-15T01:54:57.290Z,17.40
2022-09-15T01:58:19.070Z,17.40
2022-09-15T02:01:42.393Z,17.50
2022-09-15T02:05:08.043Z,17.50
2022-09-15T02:08:33.312Z,17.50
2022-09-15T02:12:00.377Z,17.50
2022-09-15T02:15:31.378Z,17.40
2022-09-15T02:19:02.765Z,17.40
2022-09-15T02:22:52.179Z,17.40
2022-09-15T02:26:27.110Z,17.30
2022-09-15T02:30:11.543Z,17.30
2022-09-15T02:37:26.102Z,17.30
2022-09-15T02:40:53.162Z,17.30
2022-09-15T02:44:15.032Z,17.30
2022-09-15T02:47:36.659Z,17.30
2022-09-15T02:50:59.713Z,17.30
2022-09-15T02:54:21.425Z,17.30
2022-09-15T02:57:44.454Z,17.30
2022-09-15T03:01:06.993Z,17.30
2022-09-15T03:04:28.933Z,17.30
2022-09-15T03:07:51.075Z,17.20
2022-09-15T03:11:12.732Z,17.20
2022-09-15T03:14:45.578Z,17.20
2022-09-15T03:18:08.844Z,17.20
2022-09-15T03:21:30.587Z,17.10
2022-09-15T03:24:52.365Z,17.10
2022-09-15T03:28:14.079Z,17.20
2022-09-15T03:31:37.319Z,17.10
2022-09-15T03:35:03.172Z,17.20
2022-09-15T03:38:25.335Z,17.20
2022-09-15T03:41:47.112Z,17.20
2022-09-15T03:45:09.131Z,17.20
2022-09-15T03:48:32.846Z,17.20
2022-09-15T03:51:54.713Z,17.20
2022-09-15T03:55:16.663Z,17.20
2022-09-15T03:58:38.368Z,17.20
2022-09-15T04:02:00.143Z,17.20
2022-09-15T04:05:23.270Z,17.20
2022-09-15T04:08:48.874Z,17.20
2022-09-15T04:12:11.091Z,17.20
2022-09-15T04:15:32.780Z,17.20
2022-09-15T04:18:54.896Z,17.20
2022-09-15T04:22:20.826Z,17.10
2022-09-15T04:25:53.717Z,17.10
2022-09-15T04:29:19.951Z,17.10
2022-09-15T04:32:41.721Z,17.10
2022-09-15T04:36:04.715Z,17.10
2022-09-15T04:39:27.786Z,17.10
2022-09-15T04:42:49.514Z,17.10
2022-09-15T04:46:11.887Z,17.10
2022-09-15T04:49:33.926Z,17.10
2022-09-15T04:52:55.635Z,17.10
2022-09-15T04:56:19.975Z,17.00
2022-09-15T04:59:41.618Z,17.00
2022-09-15T05:03:03.366Z,17.00
2022-09-15T05:06:26.418Z,16.90
2022-09-15T05:09:48.061Z,16.90
2022-09-15T05:13:11.117Z,16.90
2022-09-15T05:16:32.822Z,17.00
2022-09-15T05:19:54.586Z,17.00
2022-09-15T05:23:16.295Z,17.10
2022-09-15T05:26:37.946Z,17.10
2022-09-15T05:30:25.217Z,17.10
2022-09-15T05:33:42.783Z,17.10
2022-09-15T05:37:04.489Z,17.10
2022-09-15T05:40:26.243Z,17.10
2022-09-15T05:43:48.846Z,17.00
2022-09-15T05:47:12.028Z,16.90
2022-09-15T05:50:33.804Z,16.90
2022-09-15T05:53:55.668Z,16.80
2022-09-15T05:57:19.216Z,16.90
2022-09-15T06:00:41.074Z,16.90
2022-09-15T06:04:04.224Z,17.00
2022-09-15T06:07:25.979Z,17.00
2022-09-15T06:10:47.723Z,17.00
2022-09-15T06:14:10.613Z,17.00
2022-09-15T06:17:32.649Z,17.00
2022-09-15T06:20:55.772Z,17.00
2022-09-15T06:24:17.516Z,17.10
2022-09-15T06:27:39.209Z,17.10
2022-09-15T06:31:00.905Z,17.10
2022-09-15T06:34:22.569Z,17.20
2022-09-15T06:37:45.676Z,17.20
2022-09-15T06:41:09.642Z,17.10
2022-09-15T06:44:31.353Z,17.10
2022-09-15T06:48:13.318Z,17.00
2022-09-15T06:51:35.181Z,17.00
2022-09-15T06:54:58.337Z,17.10
2022-09-15T06:58:20.041Z,17.20
2022-09-15T07:01:41.788Z,17.30
2022-09-15T07:05:03.885Z,17.50
2022-09-15T07:08:25.631Z,17.60
2022-09-15T07:11:49.019Z,17.40
2022-09-15T07:15:10.938Z,17.30
2022-09-15T07:18:32.802Z,17.10
2022-09-15T07:21:54.501Z,17.00
2022-09-15T07:25:16.289Z,17.10
2022-09-15T07:28:40.232Z,17.10
2022-09-15T07:32:02.195Z,17.10
2022-09-15T07:35:23.915Z,17.10
2022-09-15T07:38:46.581Z,17.30
2022-09-15T07:42:08.225Z,17.40
2022-09-15T07:45:32.285Z,17.60
2022-09-15T07:48:54.485Z,17.70
2022-09-15T07:52:16.217Z,17.70
2022-09-15T07:55:37.899Z,17.70
2022-09-15T07:58:59.824Z,17.70
2022-09-15T08:02:23.015Z,17.70
2022-09-15T08:05:47.803Z,17.70
2022-09-15T08:09:09.495Z,17.60
2022-09-15T08:12:31.431Z,17.60
2022-09-15T08:15:53.290Z,17.70
2022-09-15T08:19:16.376Z,17.70
2022-09-15T08:22:37.974Z,17.70
2022-09-15T08:26:00.193Z,17.70
2022-09-15T08:29:21.969Z,17.80
2022-09-15T08:32:43.621Z,17.90
2022-09-15T08:36:07.860Z,17.90
2022-09-15T08:39:29.539Z,17.80
2022-09-15T08:42:53.336Z,17.80
2022-09-15T08:46:17.580Z,17.80
2022-09-15T08:49:51.674Z,18.00
2022-09-15T08:53:17.753Z,18.10
2022-09-15T08:56:40.834Z,18.40
2022-09-15T09:00:02.721Z,19.10
2022-09-15T09:03:32.844Z,19.70
2022-09-15T09:06:59.359Z,19.80
2022-09-15T09:10:25.421Z,19.60
2022-09-15T09:13:50.747Z,19.30
2022-09-15T09:17:20.880Z,18.90
2022-09-15T09:20:46.417Z,18.90
2022-09-15T09:24:16.653Z,18.90
2022-09-15T09:27:39.788Z,18.90
2022-09-15T09:31:02.168Z,18.80
2022-09-15T09:34:28.773Z,18.60
2022-09-15T09:37:51.208Z,18.60
2022-09-15T09:41:14.364Z,18.80
2022-09-15T09:44:37.513Z,19.10
2022-09-15T09:48:01.774Z,19.60
2022-09-15T09:51:31.225Z,19.90
2022-09-15T09:54:59.654Z,20.10
2022-09-15T09:58:23.172Z,20.30
2022-09-15T10:02:03.688Z,20.40
2022-09-15T10:05:25.633Z,20.40
2022-09-15T10:08:54.483Z,20.40
2022-09-15T10:12:18.975Z,20.20
2022-09-15T10:15:40.663Z,20.20
2022-09-15T10:19:03.713Z,20.30
2022-09-15T10:22:30.291Z,20.30
2022-09-15T10:25:59.577Z,20.30
2022-09-15T10:29:23.190Z,20.40
2022-09-15T10:32:44.884Z,20.10
2022-09-15T10:36:12.579Z,19.70
2022-09-15T10:39:38.511Z,19.60
2022-09-15T10:43:09.128Z,19.40
2022-09-15T10:46:39.378Z,19.20
2022-09-15T10:50:05.178Z,19.10
2022-09-15T10:53:34.217Z,18.60
2022-09-15T10:56:58.016Z,17.90
2022-09-15T11:00:20.929Z,17.50
2022-09-15T11:03:59.049Z,17.10
2022-09-15T11:07:25.878Z,16.80
2022-09-15T11:10:51.880Z,16.70
2022-09-15T11:14:22.455Z,16.60
2022-09-15T11:17:50.379Z,16.60
2022-09-15T11:21:19.076Z,16.60
2022-09-15T11:24:43.277Z,16.50
2022-09-15T11:28:12.719Z,16.10
2022-09-15T11:31:37.976Z,15.90
2022-09-15T11:35:02.703Z,15.70
2022-09-15T11:38:31.130Z,15.50
2022-09-15T11:41:54.596Z,15.50
2022-09-15T11:45:20.327Z,15.30
2022-09-15T11:48:43.664Z,15.10
2022-09-15T11:52:11.211Z,15.00
2022-09-15T11:55:35.095Z,14.90
2022-09-15T11:59:05.498Z,15.00
2022-09-15T12:02:35.547Z,15.00
2022-09-15T12:05:59.676Z,15.00
2022-09-15T12:09:26.336Z,15.00
2022-09-15T12:12:48.385Z,15.00
2022-09-15T12:16:10.522Z,14.90
2022-09-15T12:19:43.874Z,15.00
2022-09-15T12:23:16.087Z,15.10
2022-09-15T12:26:38.332Z,15.30
2022-09-15T12:30:00.884Z,15.30
2022-09-15T12:33:43.719Z,15.30
2022-09-15T12:37:11.340Z,15.30
2022-09-15T12:40:34.933Z,15.20
2022-09-15T12:43:58.441Z,15.10
2022-09-15T12:47:26.241Z,15.00
2022-09-15T12:50:52.595Z,15.30
2022-09-15T12:54:20.548Z,15.50
2022-09-15T12:57:42.270Z,15.90
2022-09-15T13:01:22.750Z,16.30
2022-09-15T13:04:51.198Z,16.50
2022-09-15T13:08:13.631Z,16.80
2022-09-15T13:11:39.773Z,17.00
2022-09-15T13:15:03.704Z,17.30
2022-09-15T13:18:25.993Z,17.60
2022-09-15T13:21:52.229Z,17.80
2022-09-15T13:25:15.404Z,17.90
2022-09-15T13:28:38.886Z,17.90
2022-09-15T13:32:04.432Z,17.60
2022-09-15T13:35:32.066Z,17.70
2022-09-15T13:39:01.328Z,17.70
2022-09-15T13:42:34.850Z,17.60
2022-09-15T13:46:04.428Z,17.50
2022-09-15T13:49:44.678Z,17.50
2022-09-15T13:53:21.702Z,17.60
2022-09-15T13:56:43.627Z,17.80
2022-09-15T14:00:07.805Z,17.90
2022-09-15T14:03:39.353Z,18.10
2022-09-15T14:07:02.076Z,18.10
2022-09-15T14:10:25.271Z,18.10
2022-09-15T14:13:55.930Z,18.00
2022-09-15T14:49:07.894Z,17.40
2022-09-15T14:52:30.591Z,17.40
2022-09-15T14:55:54.539Z,17.30
2022-09-15T14:59:18.384Z,17.20
2022-09-15T15:02:47.151Z,17.10
2022-09-15T15:09:56.013Z,17.00
2022-09-15T15:13:28.316Z,17.00
2022-09-15T15:16:51.318Z,17.00
2022-09-15T15:20:22.027Z,17.00
2022-09-15T15:24:07.985Z,17.10
2022-09-15T15:27:43.819Z,17.10
2022-09-15T15:31:21.874Z,17.20
2022-09-15T15:34:59.046Z,17.30
2022-09-15T15:38:26.420Z,17.30
2022-09-15T15:42:04.063Z,17.30
2022-09-15T15:45:30.816Z,17.20
2022-09-15T15:49:01.674Z,17.30
2022-09-15T15:52:28.149Z,17.30
2022-09-15T15:55:58.674Z,17.20
2022-09-15T15:59:20.917Z,17.10
2022-09-15T16:02:44.989Z,17.20
2022-09-15T16:06:10.321Z,17.30
2022-09-15T16:09:32.822Z,17.20
2022-09-15T16:12:58.478Z,17.20
2022-09-15T16:16:31.006Z,17.20
2022-09-15T16:20:12.015Z,17.30
2022-09-15T16:27:31.381Z,17.20
2022-09-15T16:30:54.589Z,17.00
2022-09-15T16:34:16.803Z,16.90
2022-09-15T16:37:38.476Z,16.80
2022-09-15T16:41:00.449Z,16.70
2022-09-15T16:44:22.134Z,16.70
2022-09-15T16:47:45.668Z,16.60
2022-09-15T16:51:23.441Z,16.60
2022-09-15T16:54:49.169Z,16.50
2022-09-15T16:58:10.919Z,16.50
2022-09-15T17:01:32.828Z,16.40
2022-09-15T17:05:09.440Z,16.50
2022-09-15T17:08:33.344Z,16.40
2022-09-15T17:11:55.510Z,16.30
2022-09-15T17:15:24.902Z,16.20
2022-09-15T17:18:46.728Z,16.20
2022-09-15T17:22:08.496Z,16.10
2022-09-15T17:25:34.079Z,16.10
2022-09-15T17:28:55.750Z,16.10
2022-09-15T17:32:17.455Z,16.00
2022-09-15T17:35:39.257Z,16.00
2022-09-15T17:39:01.354Z,16.00
2022-09-15T17:42:24.545Z,16.00
2022-09-15T17:45:46.745Z,16.00
2022-09-15T17:49:08.416Z,16.10
2022-09-15T17:52:30.081Z,16.00
2022-09-15T17:55:52.146Z,16.10
2022-09-15T17:59:16.344Z,16.10
2022-09-15T18:02:38.686Z,16.10
2022-09-15T18:06:01.563Z,16.20
2022-09-15T18:09:23.451Z,16.20
2022-09-15T18:12:48.384Z,16.20
2022-09-15T18:16:39.072Z,16.20
2022-09-15T18:20:02.713Z,16.20
2022-09-15T18:23:30.463Z,16.20
2022-09-15T18:27:01.071Z,16.20
2022-09-15T18:30:36.902Z,16.20
2022-09-15T18:34:00.476Z,16.10
2022-09-15T18:37:28.157Z,16.10
2022-09-15T18:40:51.037Z,16.00
2022-09-15T18:44:12.776Z,16.00
2022-09-15T18:47:36.463Z,16.00
2022-09-15T18:50:59.676Z,15.90
2022-09-15T18:54:21.435Z,15.90
2022-09-15T18:57:44.888Z,15.80
2022-09-15T19:01:06.848Z,15.70
2022-09-15T19:04:32.684Z,15.70
2022-09-15T19:08:03.306Z,15.70
2022-09-15T19:11:28.839Z,15.60
2022-09-15T19:14:51.050Z,15.50
2022-09-15T19:18:12.794Z,15.40
2022-09-15T19:21:34.471Z,15.50
2022-09-15T19:24:57.761Z,15.50
2022-09-15T19:28:19.469Z,15.40
2022-09-15T19:31:42.181Z,15.30
2022-09-15T19:35:04.209Z,15.30
2022-09-15T19:38:25.932Z,15.20
2022-09-15T19:41:49.179Z,15.20
2022-09-15T19:45:23.024Z,15.20
2022-09-15T19:48:58.227Z,15.00
2022-09-15T19:52:22.429Z,14.90
2022-09-15T19:55:56.173Z,14.80
2022-09-15T19:59:31.229Z,14.80
2022-09-15T20:10:48.208Z,14.70
2022-09-15T20:14:09.983Z,14.60
2022-09-15T20:17:33.198Z,14.50
2022-09-15T20:20:55.381Z,14.40
2022-09-15T20:24:17.320Z,14.30
2022-09-15T20:27:39.131Z,14.30
2022-09-15T20:31:02.590Z,14.20
2022-09-15T20:34:38.948Z,14.10
2022-09-15T20:38:00.976Z,14.10
2022-09-15T20:41:24.632Z,14.00
2022-09-15T20:44:46.469Z,14.00
2022-09-15T20:48:15.023Z,13.90
2022-09-15T20:51:38.200Z,13.80
2022-09-15T20:54:59.976Z,13.80
2022-09-15T20:58:21.716Z,13.80
2022-09-15T21:01:43.458Z,13.80
2022-09-15T21:05:05.348Z,13.70
2022-09-15T21:08:28.751Z,13.70
2022-09-15T21:11:53.522Z,13.70
2022-09-15T21:15:15.680Z,13.60
2022-09-15T21:18:37.919Z,13.60
2022-09-15T21:21:59.555Z,13.60
2022-09-15T21:25:22.935Z,13.50
2022-09-15T21:28:44.678Z,13.50
2022-09-15T21:32:06.373Z,13.40
2022-09-15T21:35:28.070Z,13.30
2022-09-15T21:38:50.683Z,13.30
2022-09-15T21:42:13.730Z,13.30
2022-09-15T21:45:35.473Z,13.20
2022-09-15T21:48:58.054Z,13.20
2022-09-15T21:52:19.722Z,13.10
2022-09-15T21:55:41.380Z,13.00
2022-09-15T21:59:04.458Z,13.00
2022-09-15T22:02:26.174Z,12.90
2022-09-15T22:05:47.884Z,12.90
2022-09-15T22:09:11.087Z,12.80
2022-09-15T22:12:32.774Z,12.80
2022-09-15T22:16:03.684Z,12.80
2022-09-15T22:19:25.351Z,12.70
2022-09-15T22:22:47.339Z,12.50
2022-09-15T22:26:10.448Z,12.50
2022-09-15T22:29:32.104Z,12.50
2022-09-15T22:32:55.144Z,12.50
2022-09-15T22:36:17.838Z,12.50
2022-09-15T22:39:58.008Z,12.40
2022-09-15T22:43:20.571Z,12.40
2022-09-15T22:46:42.271Z,12.40
2022-09-15T22:50:05.582Z,12.50
2022-09-15T22:53:27.273Z,12.50
2022-09-15T22:56:49.045Z,12.40
2022-09-15T23:00:11.362Z,12.50
2022-09-15T23:03:33.136Z,12.60
2022-09-15T23:06:56.194Z,12.70
2022-09-15T23:10:17.872Z,12.80
2022-09-15T23:13:39.684Z,12.90
2022-09-15T23:17:01.350Z,13.00
2022-09-15T23:20:23.044Z,13.00
2022-09-15T23:23:46.639Z,13.20
2022-09-15T23:27:08.399Z,13.20
2022-09-15T23:30:30.097Z,13.20
2022-09-15T23:33:51.780Z,13.30
2022-09-15T23:37:16.593Z,13.30
2022-09-15T23:40:42.185Z,13.30
2022-09-15T23:44:05.026Z,13.30
2022-09-15T23:47:26.687Z,13.30
2022-09-15T23:50:48.356Z,13.30
2022-09-15T23:54:10.037Z,13.40
2022-09-15T23:57:33.116Z,13.40
